sensor_id;sensor_type;location;lat;lon;timestamp;P1;durP1;ratioP1;P2;durP2;ratioP2
33714;SDS011;20043;50.998;4.754;2024-02-26T00:01:38;2.60;;;1.40;;
33714;SDS011;20043;50.998;4.754;2024-02-26T00:04:03;3.33;;;1.50;;
33714;SDS011;20043;50.998;4.754;2024-02-26T00:06:29;5.10;;;1.30;;
33714;SDS011;20043;50.998;4.754;2024-02-26T00:08:56;6.18;;;1.40;;
33714;SDS011;20043;50.998;4.754;2024-02-26T00:11:21;3.47;;;1.60;;
33714;SDS011;20043;50.998;4.754;2024-02-26T00:13:47;2.80;;;1.20;;
33714;SDS011;20043;50.998;4.754;2024-02-26T00:16:13;3.38;;;1.40;;
33714;SDS011;20043;50.998;4.754;2024-02-26T00:18:38;1.27;;;0.90;;
33714;SDS011;20043;50.998;4.754;2024-02-26T00:21:04;3.58;;;1.20;;
33714;SDS011;20043;50.998;4.754;2024-02-26T00:23:30;3.67;;;1.20;;
33714;SDS011;20043;50.998;4.754;2024-02-26T00:25:56;4.10;;;1.10;;
33714;SDS011;20043;50.998;4.754;2024-02-26T00:28:21;2.67;;;1.42;;
33714;SDS011;20043;50.998;4.754;2024-02-26T00:30:47;3.47;;;1.33;;
33714;SDS011;20043;50.998;4.754;2024-02-26T00:33:14;5.93;;;1.20;;
33714;SDS011;20043;50.998;4.754;2024-02-26T00:35:42;4.85;;;1.13;;
33714;SDS011;20043;50.998;4.754;2024-02-26T00:38:07;2.88;;;1.20;;
33714;SDS011;20043;50.998;4.754;2024-02-26T00:40:33;2.30;;;1.17;;
33714;SDS011;20043;50.998;4.754;2024-02-26T00:42:59;2.30;;;1.35;;
33714;SDS011;20043;50.998;4.754;2024-02-26T00:45:25;2.88;;;1.00;;
33714;SDS011;20043;50.998;4.754;2024-02-26T00:47:50;1.80;;;1.02;;
33714;SDS011;20043;50.998;4.754;2024-02-26T00:50:16;2.10;;;1.30;;
33714;SDS011;20043;50.998;4.754;2024-02-26T00:52:42;4.50;;;1.42;;
33714;SDS011;20043;50.998;4.754;2024-02-26T00:55:07;1.65;;;1.10;;
33714;SDS011;20043;50.998;4.754;2024-02-26T00:57:33;4.03;;;1.08;;
33714;SDS011;20043;50.998;4.754;2024-02-26T00:59:59;1.58;;;1.10;;
33714;SDS011;20043;50.998;4.754;2024-02-26T01:02:25;1.83;;;1.00;;
33714;SDS011;20043;50.998;4.754;2024-02-26T01:04:51;2.05;;;0.90;;
33714;SDS011;20043;50.998;4.754;2024-02-26T01:07:17;2.65;;;1.20;;
33714;SDS011;20043;50.998;4.754;2024-02-26T01:09:44;3.30;;;1.23;;
33714;SDS011;20043;50.998;4.754;2024-02-26T01:12:09;2.90;;;1.13;;
33714;SDS011;20043;50.998;4.754;2024-02-26T01:14:35;3.28;;;1.23;;
33714;SDS011;20043;50.998;4.754;2024-02-26T01:17:00;3.30;;;1.20;;
33714;SDS011;20043;50.998;4.754;2024-02-26T01:19:26;4.20;;;1.30;;
33714;SDS011;20043;50.998;4.754;2024-02-26T01:21:52;2.67;;;1.30;;
33714;SDS011;20043;50.998;4.754;2024-02-26T01:24:18;3.13;;;1.33;;
33714;SDS011;20043;50.998;4.754;2024-02-26T01:26:44;1.63;;;1.00;;
33714;SDS011;20043;50.998;4.754;2024-02-26T01:29:09;2.53;;;1.25;;
33714;SDS011;20043;50.998;4.754;2024-02-26T01:31:35;3.10;;;1.23;;
33714;SDS011;20043;50.998;4.754;2024-02-26T01:34:01;2.15;;;1.30;;
33714;SDS011;20043;50.998;4.754;2024-02-26T01:36:26;3.42;;;1.23;;
33714;SDS011;20043;50.998;4.754;2024-02-26T01:38:52;1.65;;;1.20;;
33714;SDS011;20043;50.998;4.754;2024-02-26T01:41:17;3.47;;;1.30;;
33714;SDS011;20043;50.998;4.754;2024-02-26T01:43:43;5.82;;;1.63;;
33714;SDS011;20043;50.998;4.754;2024-02-26T01:46:10;4.10;;;1.48;;
33714;SDS011;20043;50.998;4.754;2024-02-26T01:48:40;5.35;;;1.30;;
33714;SDS011;20043;50.998;4.754;2024-02-26T01:51:07;3.53;;;1.30;;
33714;SDS011;20043;50.998;4.754;2024-02-26T01:53:32;3.58;;;1.30;;
33714;SDS011;20043;50.998;4.754;2024-02-26T01:55:59;2.20;;;1.42;;
33714;SDS011;20043;50.998;4.754;2024-02-26T01:58:24;3.03;;;1.30;;
33714;SDS011;20043;50.998;4.754;2024-02-26T02:00:50;5.32;;;1.10;;
33714;SDS011;20043;50.998;4.754;2024-02-26T02:03:16;6.82;;;1.40;;
33714;SDS011;20043;50.998;4.754;2024-02-26T02:05:41;2.85;;;1.40;;
33714;SDS011;20043;50.998;4.754;2024-02-26T02:08:08;6.43;;;1.77;;
33714;SDS011;20043;50.998;4.754;2024-02-26T02:10:36;6.05;;;1.48;;
33714;SDS011;20043;50.998;4.754;2024-02-26T02:13:03;2.63;;;1.33;;
33714;SDS011;20043;50.998;4.754;2024-02-26T02:15:29;2.67;;;1.33;;
33714;SDS011;20043;50.998;4.754;2024-02-26T02:18:00;6.75;;;1.58;;
33714;SDS011;20043;50.998;4.754;2024-02-26T02:20:31;1.60;;;1.23;;
33714;SDS011;20043;50.998;4.754;2024-02-26T02:23:00;3.20;;;1.25;;
33714;SDS011;20043;50.998;4.754;2024-02-26T02:25:26;2.42;;;1.27;;
33714;SDS011;20043;50.998;4.754;2024-02-26T02:27:51;3.80;;;1.70;;
33714;SDS011;20043;50.998;4.754;2024-02-26T02:30:19;9.13;;;1.70;;
33714;SDS011;20043;50.998;4.754;2024-02-26T02:32:48;3.22;;;1.50;;
33714;SDS011;20043;50.998;4.754;2024-02-26T02:35:14;4.43;;;1.80;;
33714;SDS011;20043;50.998;4.754;2024-02-26T02:37:39;5.13;;;2.10;;
33714;SDS011;20043;50.998;4.754;2024-02-26T02:40:05;4.63;;;2.53;;
33714;SDS011;20043;50.998;4.754;2024-02-26T02:42:31;4.10;;;2.30;;
33714;SDS011;20043;50.998;4.754;2024-02-26T02:44:57;4.88;;;2.35;;
33714;SDS011;20043;50.998;4.754;2024-02-26T02:47:23;3.30;;;2.20;;
33714;SDS011;20043;50.998;4.754;2024-02-26T02:49:48;8.07;;;2.33;;
33714;SDS011;20043;50.998;4.754;2024-02-26T02:52:14;2.97;;;1.85;;
33714;SDS011;20043;50.998;4.754;2024-02-26T02:54:39;4.75;;;1.88;;
33714;SDS011;20043;50.998;4.754;2024-02-26T02:57:06;3.95;;;2.30;;
33714;SDS011;20043;50.998;4.754;2024-02-26T02:59:35;4.72;;;2.72;;
33714;SDS011;20043;50.998;4.754;2024-02-26T03:02:01;4.28;;;2.50;;
33714;SDS011;20043;50.998;4.754;2024-02-26T03:04:27;5.43;;;2.47;;
33714;SDS011;20043;50.998;4.754;2024-02-26T03:06:54;4.45;;;3.05;;
33714;SDS011;20043;50.998;4.754;2024-02-26T03:09:20;7.03;;;2.67;;
33714;SDS011;20043;50.998;4.754;2024-02-26T03:11:45;4.32;;;2.42;;
33714;SDS011;20043;50.998;4.754;2024-02-26T03:14:11;4.88;;;2.88;;
33714;SDS011;20043;50.998;4.754;2024-02-26T03:16:37;5.38;;;2.65;;
33714;SDS011;20043;50.998;4.754;2024-02-26T03:19:02;4.93;;;3.13;;
33714;SDS011;20043;50.998;4.754;2024-02-26T03:21:28;4.95;;;3.00;;
33714;SDS011;20043;50.998;4.754;2024-02-26T03:23:54;5.82;;;3.20;;
33714;SDS011;20043;50.998;4.754;2024-02-26T03:26:19;5.35;;;3.30;;
33714;SDS011;20043;50.998;4.754;2024-02-26T03:28:46;4.85;;;3.35;;
33714;SDS011;20043;50.998;4.754;2024-02-26T03:31:12;6.90;;;3.77;;
33714;SDS011;20043;50.998;4.754;2024-02-26T03:33:37;8.25;;;3.90;;
33714;SDS011;20043;50.998;4.754;2024-02-26T03:36:03;7.80;;;4.30;;
33714;SDS011;20043;50.998;4.754;2024-02-26T03:38:29;7.82;;;4.45;;
33714;SDS011;20043;50.998;4.754;2024-02-26T03:40:55;6.68;;;3.88;;
33714;SDS011;20043;50.998;4.754;2024-02-26T03:43:21;6.55;;;3.47;;
33714;SDS011;20043;50.998;4.754;2024-02-26T03:45:47;7.18;;;3.75;;
33714;SDS011;20043;50.998;4.754;2024-02-26T03:48:12;5.10;;;3.60;;
33714;SDS011;20043;50.998;4.754;2024-02-26T03:50:38;6.15;;;3.88;;
33714;SDS011;20043;50.998;4.754;2024-02-26T03:53:04;5.57;;;4.03;;
33714;SDS011;20043;50.998;4.754;2024-02-26T03:55:29;7.07;;;4.07;;
33714;SDS011;20043;50.998;4.754;2024-02-26T03:57:55;7.57;;;4.40;;
33714;SDS011;20043;50.998;4.754;2024-02-26T04:00:21;5.65;;;4.10;;
33714;SDS011;20043;50.998;4.754;2024-02-26T04:02:47;6.30;;;4.10;;
33714;SDS011;20043;50.998;4.754;2024-02-26T04:05:13;9.55;;;4.25;;
33714;SDS011;20043;50.998;4.754;2024-02-26T04:07:39;6.55;;;4.15;;
33714;SDS011;20043;50.998;4.754;2024-02-26T04:10:09;9.45;;;4.43;;
33714;SDS011;20043;50.998;4.754;2024-02-26T04:12:35;5.13;;;4.05;;
33714;SDS011;20043;50.998;4.754;2024-02-26T04:15:03;6.65;;;4.30;;
33714;SDS011;20043;50.998;4.754;2024-02-26T04:17:29;7.80;;;4.40;;
33714;SDS011;20043;50.998;4.754;2024-02-26T04:19:55;11.13;;;4.50;;
33714;SDS011;20043;50.998;4.754;2024-02-26T04:22:20;4.75;;;4.13;;
33714;SDS011;20043;50.998;4.754;2024-02-26T04:24:46;7.65;;;4.90;;
33714;SDS011;20043;50.998;4.754;2024-02-26T04:27:11;8.38;;;4.80;;
33714;SDS011;20043;50.998;4.754;2024-02-26T04:29:37;6.28;;;4.50;;
33714;SDS011;20043;50.998;4.754;2024-02-26T04:32:03;8.55;;;5.40;;
33714;SDS011;20043;50.998;4.754;2024-02-26T04:34:28;7.35;;;5.40;;
33714;SDS011;20043;50.998;4.754;2024-02-26T04:36:54;7.93;;;5.13;;
33714;SDS011;20043;50.998;4.754;2024-02-26T04:39:20;10.63;;;6.53;;
33714;SDS011;20043;50.998;4.754;2024-02-26T04:41:46;9.98;;;6.57;;
33714;SDS011;20043;50.998;4.754;2024-02-26T04:44:11;11.93;;;7.47;;
33714;SDS011;20043;50.998;4.754;2024-02-26T04:46:37;11.85;;;8.13;;
33714;SDS011;20043;50.998;4.754;2024-02-26T04:49:02;12.05;;;8.10;;
33714;SDS011;20043;50.998;4.754;2024-02-26T04:51:28;10.32;;;8.57;;
33714;SDS011;20043;50.998;4.754;2024-02-26T04:53:53;12.68;;;8.60;;
33714;SDS011;20043;50.998;4.754;2024-02-26T04:56:22;12.88;;;8.95;;
33714;SDS011;20043;50.998;4.754;2024-02-26T04:58:48;13.52;;;8.85;;
33714;SDS011;20043;50.998;4.754;2024-02-26T05:01:14;16.63;;;10.00;;
33714;SDS011;20043;50.998;4.754;2024-02-26T05:03:41;12.10;;;8.95;;
33714;SDS011;20043;50.998;4.754;2024-02-26T05:06:07;13.07;;;9.63;;
33714;SDS011;20043;50.998;4.754;2024-02-26T05:08:34;12.43;;;8.20;;
33714;SDS011;20043;50.998;4.754;2024-02-26T05:11:01;13.27;;;8.38;;
33714;SDS011;20043;50.998;4.754;2024-02-26T05:13:27;10.38;;;8.00;;
33714;SDS011;20043;50.998;4.754;2024-02-26T05:15:53;13.85;;;7.70;;
33714;SDS011;20043;50.998;4.754;2024-02-26T05:18:19;11.13;;;7.93;;
33714;SDS011;20043;50.998;4.754;2024-02-26T05:20:45;11.85;;;7.63;;
33714;SDS011;20043;50.998;4.754;2024-02-26T05:23:10;14.65;;;7.88;;
33714;SDS011;20043;50.998;4.754;2024-02-26T05:25:36;9.65;;;8.02;;
33714;SDS011;20043;50.998;4.754;2024-02-26T05:28:02;13.63;;;8.38;;
33714;SDS011;20043;50.998;4.754;2024-02-26T05:30:27;9.60;;;7.40;;
33714;SDS011;20043;50.998;4.754;2024-02-26T05:32:54;9.88;;;7.57;;
33714;SDS011;20043;50.998;4.754;2024-02-26T05:35:19;12.05;;;7.82;;
33714;SDS011;20043;50.998;4.754;2024-02-26T05:37:45;9.77;;;7.40;;
33714;SDS011;20043;50.998;4.754;2024-02-26T05:40:11;11.13;;;8.02;;
33714;SDS011;20043;50.998;4.754;2024-02-26T05:42:37;13.43;;;7.43;;
33714;SDS011;20043;50.998;4.754;2024-02-26T05:45:02;10.88;;;7.85;;
33714;SDS011;20043;50.998;4.754;2024-02-26T05:47:34;11.45;;;7.35;;
33714;SDS011;20043;50.998;4.754;2024-02-26T05:50:01;9.60;;;7.20;;
33714;SDS011;20043;50.998;4.754;2024-02-26T05:52:27;9.32;;;7.35;;
33714;SDS011;20043;50.998;4.754;2024-02-26T05:54:54;9.20;;;7.40;;
33714;SDS011;20043;50.998;4.754;2024-02-26T05:57:20;11.30;;;8.27;;
33714;SDS011;20043;50.998;4.754;2024-02-26T05:59:45;9.70;;;7.30;;
33714;SDS011;20043;50.998;4.754;2024-02-26T06:02:11;8.75;;;7.38;;
33714;SDS011;20043;50.998;4.754;2024-02-26T06:04:36;9.75;;;7.82;;
33714;SDS011;20043;50.998;4.754;2024-02-26T06:07:02;11.15;;;8.48;;
33714;SDS011;20043;50.998;4.754;2024-02-26T06:09:28;14.40;;;8.95;;
33714;SDS011;20043;50.998;4.754;2024-02-26T06:11:53;11.85;;;8.05;;
33714;SDS011;20043;50.998;4.754;2024-02-26T06:14:19;13.07;;;9.68;;
33714;SDS011;20043;50.998;4.754;2024-02-26T06:16:45;13.10;;;9.27;;
33714;SDS011;20043;50.998;4.754;2024-02-26T06:19:11;11.88;;;9.45;;
33714;SDS011;20043;50.998;4.754;2024-02-26T06:21:37;12.95;;;9.57;;
33714;SDS011;20043;50.998;4.754;2024-02-26T06:24:03;11.75;;;10.30;;
33714;SDS011;20043;50.998;4.754;2024-02-26T06:26:28;13.52;;;10.82;;
33714;SDS011;20043;50.998;4.754;2024-02-26T06:28:54;12.88;;;9.98;;
33714;SDS011;20043;50.998;4.754;2024-02-26T06:31:23;13.88;;;11.15;;
33714;SDS011;20043;50.998;4.754;2024-02-26T06:33:49;10.80;;;9.68;;
33714;SDS011;20043;50.998;4.754;2024-02-26T06:36:17;12.57;;;10.18;;
33714;SDS011;20043;50.998;4.754;2024-02-26T06:38:43;11.60;;;10.27;;
33714;SDS011;20043;50.998;4.754;2024-02-26T06:41:09;14.02;;;10.75;;
33714;SDS011;20043;50.998;4.754;2024-02-26T06:43:34;13.60;;;11.18;;
33714;SDS011;20043;50.998;4.754;2024-02-26T06:46:00;12.95;;;11.60;;
33714;SDS011;20043;50.998;4.754;2024-02-26T06:48:25;14.85;;;11.70;;
33714;SDS011;20043;50.998;4.754;2024-02-26T06:50:51;12.70;;;11.40;;
33714;SDS011;20043;50.998;4.754;2024-02-26T06:53:17;12.95;;;10.90;;
33714;SDS011;20043;50.998;4.754;2024-02-26T06:55:42;12.43;;;10.95;;
33714;SDS011;20043;50.998;4.754;2024-02-26T06:58:08;14.63;;;12.60;;
33714;SDS011;20043;50.998;4.754;2024-02-26T07:00:34;12.32;;;11.10;;
33714;SDS011;20043;50.998;4.754;2024-02-26T07:03:00;13.15;;;11.45;;
33714;SDS011;20043;50.998;4.754;2024-02-26T07:05:26;13.27;;;11.32;;
33714;SDS011;20043;50.998;4.754;2024-02-26T07:07:52;16.00;;;12.30;;
33714;SDS011;20043;50.998;4.754;2024-02-26T07:10:18;14.63;;;12.25;;
33714;SDS011;20043;50.998;4.754;2024-02-26T07:12:44;12.90;;;11.60;;
33714;SDS011;20043;50.998;4.754;2024-02-26T07:15:09;13.60;;;11.95;;
33714;SDS011;20043;50.998;4.754;2024-02-26T07:17:35;12.90;;;11.57;;
33714;SDS011;20043;50.998;4.754;2024-02-26T07:20:01;13.07;;;11.38;;
33714;SDS011;20043;50.998;4.754;2024-02-26T07:22:29;13.35;;;11.48;;
33714;SDS011;20043;50.998;4.754;2024-02-26T07:24:55;14.18;;;12.68;;
33714;SDS011;20043;50.998;4.754;2024-02-26T07:27:20;13.68;;;11.98;;
33714;SDS011;20043;50.998;4.754;2024-02-26T07:29:46;13.25;;;11.85;;
33714;SDS011;20043;50.998;4.754;2024-02-26T07:32:12;14.80;;;12.07;;
33714;SDS011;20043;50.998;4.754;2024-02-26T07:34:38;12.82;;;11.52;;
33714;SDS011;20043;50.998;4.754;2024-02-26T07:37:06;12.77;;;11.30;;
33714;SDS011;20043;50.998;4.754;2024-02-26T07:39:32;12.50;;;10.85;;
33714;SDS011;20043;50.998;4.754;2024-02-26T07:41:58;12.32;;;10.77;;
33714;SDS011;20043;50.998;4.754;2024-02-26T07:44:24;12.68;;;11.32;;
33714;SDS011;20043;50.998;4.754;2024-02-26T07:46:49;12.57;;;11.27;;
33714;SDS011;20043;50.998;4.754;2024-02-26T07:49:15;12.23;;;10.55;;
33714;SDS011;20043;50.998;4.754;2024-02-26T07:51:40;12.45;;;10.70;;
33714;SDS011;20043;50.998;4.754;2024-02-26T07:54:07;12.77;;;10.52;;
33714;SDS011;20043;50.998;4.754;2024-02-26T07:56:32;14.18;;;11.20;;
33714;SDS011;20043;50.998;4.754;2024-02-26T07:58:58;12.10;;;10.55;;
33714;SDS011;20043;50.998;4.754;2024-02-26T08:01:23;11.85;;;10.65;;
33714;SDS011;20043;50.998;4.754;2024-02-26T08:03:51;12.40;;;10.90;;
33714;SDS011;20043;50.998;4.754;2024-02-26T08:06:17;12.95;;;11.75;;
33714;SDS011;20043;50.998;4.754;2024-02-26T08:08:42;12.75;;;10.82;;
33714;SDS011;20043;50.998;4.754;2024-02-26T08:11:08;11.98;;;10.77;;
33714;SDS011;20043;50.998;4.754;2024-02-26T08:13:34;13.57;;;12.10;;
33714;SDS011;20043;50.998;4.754;2024-02-26T08:16:07;14.13;;;12.55;;
33714;SDS011;20043;50.998;4.754;2024-02-26T08:18:33;13.00;;;11.70;;
33714;SDS011;20043;50.998;4.754;2024-02-26T08:20:58;14.07;;;11.60;;
33714;SDS011;20043;50.998;4.754;2024-02-26T08:23:24;11.90;;;10.70;;
33714;SDS011;20043;50.998;4.754;2024-02-26T08:25:51;13.00;;;11.68;;
33714;SDS011;20043;50.998;4.754;2024-02-26T08:28:16;12.93;;;11.63;;
33714;SDS011;20043;50.998;4.754;2024-02-26T08:30:43;14.55;;;12.15;;
33714;SDS011;20043;50.998;4.754;2024-02-26T08:33:09;12.68;;;11.38;;
33714;SDS011;20043;50.998;4.754;2024-02-26T08:35:35;14.80;;;12.70;;
33714;SDS011;20043;50.998;4.754;2024-02-26T08:38:01;14.27;;;12.88;;
33714;SDS011;20043;50.998;4.754;2024-02-26T08:40:26;13.75;;;12.45;;
33714;SDS011;20043;50.998;4.754;2024-02-26T08:42:52;15.98;;;14.38;;
33714;SDS011;20043;50.998;4.754;2024-02-26T08:45:17;14.38;;;12.93;;
33714;SDS011;20043;50.998;4.754;2024-02-26T08:47:44;13.48;;;12.07;;
33714;SDS011;20043;50.998;4.754;2024-02-26T08:50:10;14.15;;;12.77;;
33714;SDS011;20043;50.998;4.754;2024-02-26T08:52:37;17.23;;;14.60;;
33714;SDS011;20043;50.998;4.754;2024-02-26T08:55:03;25.65;;;16.40;;
33714;SDS011;20043;50.998;4.754;2024-02-26T08:57:29;36.42;;;24.98;;
33714;SDS011;20043;50.998;4.754;2024-02-26T08:59:58;17.10;;;14.40;;
33714;SDS011;20043;50.998;4.754;2024-02-26T09:02:23;13.80;;;12.35;;
33714;SDS011;20043;50.998;4.754;2024-02-26T09:04:49;14.40;;;12.90;;
33714;SDS011;20043;50.998;4.754;2024-02-26T09:07:16;17.50;;;12.43;;
33714;SDS011;20043;50.998;4.754;2024-02-26T09:09:42;15.68;;;12.52;;
33714;SDS011;20043;50.998;4.754;2024-02-26T09:12:07;13.50;;;12.20;;
33714;SDS011;20043;50.998;4.754;2024-02-26T09:14:33;14.52;;;13.00;;
33714;SDS011;20043;50.998;4.754;2024-02-26T09:16:58;13.38;;;12.10;;
33714;SDS011;20043;50.998;4.754;2024-02-26T09:19:25;13.85;;;12.23;;
33714;SDS011;20043;50.998;4.754;2024-02-26T09:21:52;18.52;;;13.93;;
33714;SDS011;20043;50.998;4.754;2024-02-26T09:24:22;14.00;;;12.63;;
33714;SDS011;20043;50.998;4.754;2024-02-26T09:26:48;14.93;;;12.60;;
33714;SDS011;20043;50.998;4.754;2024-02-26T09:29:13;12.63;;;11.32;;
33714;SDS011;20043;50.998;4.754;2024-02-26T09:31:39;11.77;;;10.68;;
33714;SDS011;20043;50.998;4.754;2024-02-26T09:34:06;13.27;;;11.70;;
33714;SDS011;20043;50.998;4.754;2024-02-26T09:36:33;12.07;;;10.60;;
33714;SDS011;20043;50.998;4.754;2024-02-26T09:38:59;13.40;;;11.82;;
33714;SDS011;20043;50.998;4.754;2024-02-26T09:41:24;11.98;;;10.77;;
33714;SDS011;20043;50.998;4.754;2024-02-26T09:43:56;11.48;;;10.32;;
33714;SDS011;20043;50.998;4.754;2024-02-26T09:46:22;11.40;;;10.23;;
33714;SDS011;20043;50.998;4.754;2024-02-26T09:48:48;11.85;;;10.73;;
33714;SDS011;20043;50.998;4.754;2024-02-26T09:51:14;13.95;;;12.60;;
33714;SDS011;20043;50.998;4.754;2024-02-26T09:53:42;13.70;;;11.60;;
33714;SDS011;20043;50.998;4.754;2024-02-26T09:56:10;11.63;;;10.43;;
33714;SDS011;20043;50.998;4.754;2024-02-26T09:58:38;11.30;;;10.15;;
33714;SDS011;20043;50.998;4.754;2024-02-26T10:01:04;11.85;;;10.60;;
33714;SDS011;20043;50.998;4.754;2024-02-26T10:03:38;11.23;;;10.00;;
33714;SDS011;20043;50.998;4.754;2024-02-26T10:06:07;9.55;;;8.52;;
33714;SDS011;20043;50.998;4.754;2024-02-26T10:08:34;10.55;;;9.18;;
33714;SDS011;20043;50.998;4.754;2024-02-26T10:11:00;11.13;;;8.77;;
33714;SDS011;20043;50.998;4.754;2024-02-26T10:13:26;9.00;;;8.10;;
33714;SDS011;20043;50.998;4.754;2024-02-26T10:15:52;10.60;;;8.93;;
33714;SDS011;20043;50.998;4.754;2024-02-26T10:18:17;8.82;;;7.93;;
33714;SDS011;20043;50.998;4.754;2024-02-26T10:20:58;9.07;;;8.07;;
33714;SDS011;20043;50.998;4.754;2024-02-26T10:23:25;8.40;;;7.53;;
33714;SDS011;20043;50.998;4.754;2024-02-26T10:25:54;7.97;;;7.18;;
33714;SDS011;20043;50.998;4.754;2024-02-26T10:28:20;7.65;;;6.88;;
33714;SDS011;20043;50.998;4.754;2024-02-26T10:30:47;7.85;;;7.00;;
33714;SDS011;20043;50.998;4.754;2024-02-26T10:33:13;7.00;;;6.32;;
33714;SDS011;20043;50.998;4.754;2024-02-26T10:35:39;8.23;;;6.50;;
33714;SDS011;20043;50.998;4.754;2024-02-26T10:38:10;9.82;;;7.30;;
33714;SDS011;20043;50.998;4.754;2024-02-26T10:40:36;9.13;;;7.38;;
33714;SDS011;20043;50.998;4.754;2024-02-26T10:43:02;6.55;;;5.95;;
33714;SDS011;20043;50.998;4.754;2024-02-26T10:45:27;8.45;;;6.45;;
33714;SDS011;20043;50.998;4.754;2024-02-26T10:47:53;7.30;;;6.50;;
33714;SDS011;20043;50.998;4.754;2024-02-26T10:50:19;6.97;;;6.28;;
33714;SDS011;20043;50.998;4.754;2024-02-26T10:52:45;7.40;;;6.40;;
33714;SDS011;20043;50.998;4.754;2024-02-26T10:55:15;5.95;;;5.35;;
33714;SDS011;20043;50.998;4.754;2024-02-26T10:57:45;8.60;;;5.95;;
33714;SDS011;20043;50.998;4.754;2024-02-26T11:00:13;7.63;;;5.50;;
33714;SDS011;20043;50.998;4.754;2024-02-26T11:02:40;6.57;;;5.88;;
33714;SDS011;20043;50.998;4.754;2024-02-26T11:05:06;6.03;;;5.40;;
33714;SDS011;20043;50.998;4.754;2024-02-26T11:07:35;5.65;;;4.93;;
33714;SDS011;20043;50.998;4.754;2024-02-26T11:10:03;6.35;;;5.75;;
33714;SDS011;20043;50.998;4.754;2024-02-26T11:12:30;9.32;;;6.03;;
33714;SDS011;20043;50.998;4.754;2024-02-26T11:14:57;6.72;;;5.45;;
33714;SDS011;20043;50.998;4.754;2024-02-26T11:17:27;5.93;;;5.30;;
33714;SDS011;20043;50.998;4.754;2024-02-26T11:19:57;6.00;;;5.40;;
33714;SDS011;20043;50.998;4.754;2024-02-26T11:22:24;8.98;;;5.47;;
33714;SDS011;20043;50.998;4.754;2024-02-26T11:24:54;6.95;;;5.32;;
33714;SDS011;20043;50.998;4.754;2024-02-26T11:27:23;6.28;;;5.00;;
33714;SDS011;20043;50.998;4.754;2024-02-26T11:29:54;5.60;;;4.75;;
33714;SDS011;20043;50.998;4.754;2024-02-26T11:32:22;6.28;;;4.90;;
33714;SDS011;20043;50.998;4.754;2024-02-26T11:34:48;8.90;;;5.13;;
33714;SDS011;20043;50.998;4.754;2024-02-26T11:37:15;4.85;;;4.40;;
33714;SDS011;20043;50.998;4.754;2024-02-26T11:39:42;6.18;;;5.53;;
33714;SDS011;20043;50.998;4.754;2024-02-26T11:42:10;8.00;;;5.13;;
33714;SDS011;20043;50.998;4.754;2024-02-26T11:44:39;5.90;;;5.30;;
33714;SDS011;20043;50.998;4.754;2024-02-26T11:47:19;5.82;;;5.30;;
33714;SDS011;20043;50.998;4.754;2024-02-26T11:49:46;6.57;;;4.93;;
33714;SDS011;20043;50.998;4.754;2024-02-26T11:52:13;5.93;;;5.38;;
33714;SDS011;20043;50.998;4.754;2024-02-26T11:54:43;6.80;;;5.00;;
33714;SDS011;20043;50.998;4.754;2024-02-26T12:05:13;5.60;;;4.97;;
33714;SDS011;20043;50.998;4.754;2024-02-26T12:07:45;5.32;;;4.82;;
33714;SDS011;20043;50.998;4.754;2024-02-26T12:12:54;5.85;;;5.22;;
33714;SDS011;20043;50.998;4.754;2024-02-26T12:15:23;5.32;;;4.70;;
33714;SDS011;20043;50.998;4.754;2024-02-26T12:17:49;8.30;;;5.80;;
33714;SDS011;20043;50.998;4.754;2024-02-26T12:20:16;4.95;;;4.13;;
33714;SDS011;20043;50.998;4.754;2024-02-26T12:22:46;5.20;;;4.70;;
33714;SDS011;20043;50.998;4.754;2024-02-26T12:25:15;5.55;;;5.00;;
33714;SDS011;20043;50.998;4.754;2024-02-26T12:27:41;9.00;;;5.30;;
33714;SDS011;20043;50.998;4.754;2024-02-26T12:30:07;9.05;;;4.40;;
33714;SDS011;20043;50.998;4.754;2024-02-26T12:32:33;5.57;;;4.15;;
33714;SDS011;20043;50.998;4.754;2024-02-26T12:35:00;5.93;;;4.88;;
33714;SDS011;20043;50.998;4.754;2024-02-26T12:37:26;4.68;;;3.90;;
33714;SDS011;20043;50.998;4.754;2024-02-26T12:39:53;4.65;;;4.25;;
33714;SDS011;20043;50.998;4.754;2024-02-26T12:42:19;4.38;;;3.97;;
33714;SDS011;20043;50.998;4.754;2024-02-26T12:44:47;8.00;;;4.80;;
33714;SDS011;20043;50.998;4.754;2024-02-26T12:47:14;7.78;;;4.75;;
33714;SDS011;20043;50.998;4.754;2024-02-26T12:49:42;6.57;;;5.03;;
33714;SDS011;20043;50.998;4.754;2024-02-26T12:52:09;5.68;;;4.93;;
33714;SDS011;20043;50.998;4.754;2024-02-26T12:54:35;5.35;;;4.82;;
33714;SDS011;20043;50.998;4.754;2024-02-26T12:57:04;7.40;;;5.80;;
33714;SDS011;20043;50.998;4.754;2024-02-26T12:59:37;6.97;;;5.57;;
33714;SDS011;20043;50.998;4.754;2024-02-26T13:02:04;8.93;;;6.38;;
33714;SDS011;20043;50.998;4.754;2024-02-26T13:04:29;7.28;;;6.20;;
33714;SDS011;20043;50.998;4.754;2024-02-26T13:06:56;8.18;;;6.85;;
33714;SDS011;20043;50.998;4.754;2024-02-26T13:09:27;7.47;;;6.68;;
33714;SDS011;20043;50.998;4.754;2024-02-26T13:11:54;7.75;;;6.75;;
33714;SDS011;20043;50.998;4.754;2024-02-26T13:14:20;9.38;;;7.28;;
33714;SDS011;20043;50.998;4.754;2024-02-26T13:16:55;9.85;;;7.65;;
33714;SDS011;20043;50.998;4.754;2024-02-26T13:19:22;9.32;;;8.38;;
33714;SDS011;20043;50.998;4.754;2024-02-26T13:21:47;8.75;;;7.75;;
33714;SDS011;20043;50.998;4.754;2024-02-26T13:24:13;10.60;;;7.90;;
33714;SDS011;20043;50.998;4.754;2024-02-26T13:26:39;10.02;;;9.02;;
33714;SDS011;20043;50.998;4.754;2024-02-26T13:29:05;12.73;;;9.23;;
33714;SDS011;20043;50.998;4.754;2024-02-26T13:31:30;13.15;;;9.50;;
33714;SDS011;20043;50.998;4.754;2024-02-26T13:33:57;11.18;;;9.45;;
33714;SDS011;20043;50.998;4.754;2024-02-26T13:36:23;12.93;;;10.05;;
33714;SDS011;20043;50.998;4.754;2024-02-26T13:38:53;11.02;;;9.65;;
33714;SDS011;20043;50.998;4.754;2024-02-26T13:41:20;12.90;;;10.18;;
33714;SDS011;20043;50.998;4.754;2024-02-26T13:43:49;12.60;;;10.50;;
33714;SDS011;20043;50.998;4.754;2024-02-26T13:46:15;14.88;;;10.35;;
33714;SDS011;20043;50.998;4.754;2024-02-26T13:48:42;12.02;;;9.98;;
33714;SDS011;20043;50.998;4.754;2024-02-26T13:51:08;13.48;;;11.00;;
33714;SDS011;20043;50.998;4.754;2024-02-26T13:53:34;14.20;;;10.60;;
33714;SDS011;20043;50.998;4.754;2024-02-26T13:55:59;14.93;;;10.82;;
33714;SDS011;20043;50.998;4.754;2024-02-26T13:58:26;10.95;;;9.45;;
33714;SDS011;20043;50.998;4.754;2024-02-26T14:00:55;13.07;;;10.35;;
33714;SDS011;20043;50.998;4.754;2024-02-26T14:03:21;12.73;;;10.50;;
33714;SDS011;20043;50.998;4.754;2024-02-26T14:05:47;11.85;;;10.40;;
33714;SDS011;20043;50.998;4.754;2024-02-26T14:08:12;14.25;;;10.65;;
33714;SDS011;20043;50.998;4.754;2024-02-26T14:10:38;12.90;;;10.45;;
33714;SDS011;20043;50.998;4.754;2024-02-26T14:13:04;14.73;;;11.15;;
33714;SDS011;20043;50.998;4.754;2024-02-26T14:15:30;14.38;;;10.88;;
33714;SDS011;20043;50.998;4.754;2024-02-26T14:17:55;15.38;;;10.88;;
33714;SDS011;20043;50.998;4.754;2024-02-26T14:20:22;15.07;;;10.63;;
33714;SDS011;20043;50.998;4.754;2024-02-26T14:22:49;13.32;;;11.13;;
33714;SDS011;20043;50.998;4.754;2024-02-26T14:25:16;14.75;;;11.35;;
33714;SDS011;20043;50.998;4.754;2024-02-26T14:27:42;15.55;;;11.93;;
33714;SDS011;20043;50.998;4.754;2024-02-26T14:30:07;16.02;;;11.52;;
33714;SDS011;20043;50.998;4.754;2024-02-26T14:32:33;14.93;;;10.68;;
33714;SDS011;20043;50.998;4.754;2024-02-26T14:35:01;16.85;;;10.73;;
33714;SDS011;20043;50.998;4.754;2024-02-26T14:37:28;14.48;;;10.70;;
33714;SDS011;20043;50.998;4.754;2024-02-26T14:39:53;16.77;;;10.70;;
33714;SDS011;20043;50.998;4.754;2024-02-26T14:42:19;14.85;;;10.60;;
33714;SDS011;20043;50.998;4.754;2024-02-26T14:44:44;16.38;;;11.45;;